Time;durP1;ratioP1;P1;durP2;ratioP2;P2;SDS_P1;SDS_P2;PMS_P1;PMS_P2;Temp;Humidity;BMP_temperature;BMP_pressure;BME280_temperature;BME280_humidity;BME280_pressure;Samples;Min_cycle;Max_cycle;Signal;HPM_P1;HPM_P2
2021/08/25 00:00:49;;;;;;;4.28;2.60;;;19.30;99.90;;;;;;5093379;28;20235;-79
2021/08/25 00:03:17;;;;;;;3.85;3.45;;;19.30;99.90;;;;;;5093927;28;20354;-79
2021/08/25 00:05:45;;;;;;;4.28;2.40;;;19.30;99.90;;;;;;5093431;28;20206;-79
2021/08/25 00:08:12;;;;;;;6.30;2.85;;;19.30;99.90;;;;;;5093930;28;20206;-78
2021/08/25 00:10:39;;;;;;;3.17;2.88;;;19.30;99.90;;;;;;5093569;28;20559;-80
2021/08/25 00:13:07;;;;;;;3.63;2.53;;;19.20;99.90;;;;;;5094204;28;20209;-79
2021/08/25 00:15:36;;;;;;;5.32;3.45;;;19.20;99.90;;;;;;5093599;28;20282;-79
2021/08/25 00:18:03;;;;;;;3.03;2.70;;;19.20;99.90;;;;;;5093703;28;20213;-79
2021/08/25 00:20:32;;;;;;;5.00;3.00;;;19.20;99.90;;;;;;5093430;28;20676;-78
2021/08/25 00:22:59;;;;;;;5.03;3.40;;;19.10;99.90;;;;;;5093542;28;20263;-79
2021/08/25 00:25:27;;;;;;;3.38;2.78;;;19.10;99.90;;;;;;5093598;28;20213;-78
2021/08/25 00:27:54;;;;;;;4.82;3.08;;;19.10;99.90;;;;;;5092872;28;20660;-79
2021/08/25 00:30:22;;;;;;;3.97;2.95;;;19.10;99.90;;;;;;5093284;28;20262;-80
2021/08/25 00:32:49;;;;;;;2.65;2.35;;;19.00;99.90;;;;;;5092986;28;20712;-79
2021/08/25 00:35:16;;;;;;;3.65;2.63;;;19.00;99.90;;;;;;5092160;28;20263;-78
2021/08/25 00:37:45;;;;;;;5.20;2.85;;;18.90;99.90;;;;;;5092747;28;20734;-82
2021/08/25 00:40:13;;;;;;;2.88;2.47;;;18.90;99.90;;;;;;5093260;28;20680;-78
2021/08/25 00:42:40;;;;;;;2.95;2.55;;;18.90;99.90;;;;;;5092531;28;20208;-78
2021/08/25 00:45:09;;;;;;;3.88;2.67;;;18.90;99.90;;;;;;5093358;28;20278;-79
2021/08/25 00:47:36;;;;;;;2.97;2.65;;;18.90;99.90;;;;;;5093476;28;20206;-81
2021/08/25 00:50:04;;;;;;;3.22;2.33;;;18.90;99.90;;;;;;5093157;28;20201;-78
2021/08/25 00:52:32;;;;;;;3.70;2.35;;;18.90;99.90;;;;;;5092768;28;20229;-78
2021/08/25 00:55:00;;;;;;;2.63;2.42;;;18.80;99.90;;;;;;5092608;28;20213;-80
2021/08/25 00:57:28;;;;;;;2.80;2.50;;;18.70;99.90;;;;;;5093060;28;20297;-78
2021/08/25 00:59:56;;;;;;;3.65;2.95;;;18.60;99.90;;;;;;5092809;28;20612;-78
2021/08/25 01:02:30;;;;;;;3.55;2.33;;;18.70;99.90;;;;;;5092826;28;20213;-79
2021/08/25 01:04:59;;;;;;;8.80;2.78;;;18.80;99.90;;;;;;5092229;28;20255;-79
2021/08/25 01:07:28;;;;;;;3.28;2.60;;;18.70;99.90;;;;;;5092759;28;20649;-80
2021/08/25 01:09:56;;;;;;;3.63;2.28;;;18.70;99.90;;;;;;5092001;28;20218;-79
2021/08/25 01:12:26;;;;;;;3.72;2.58;;;18.70;99.90;;;;;;5092429;28;20601;-80
2021/08/25 01:14:53;;;;;;;2.42;2.22;;;18.60;99.90;;;;;;5092379;28;20201;-79
2021/08/25 01:17:22;;;;;;;2.40;2.17;;;18.60;99.90;;;;;;5092345;28;20677;-79
2021/08/25 01:19:58;;;;;;;2.53;2.33;;;18.60;99.90;;;;;;5092006;28;20628;-78
2021/08/25 01:22:26;;;;;;;4.43;2.88;;;18.60;99.90;;;;;;5092224;28;20566;-78
2021/08/25 01:24:54;;;;;;;5.35;2.80;;;18.50;99.90;;;;;;5092170;28;20259;-79
2021/08/25 01:27:27;;;;;;;3.13;2.55;;;18.50;99.90;;;;;;5092088;28;20201;-79
2021/08/25 01:29:57;;;;;;;4.18;2.20;;;18.50;99.90;;;;;;5091871;28;20255;-80
2021/08/25 01:32:24;;;;;;;3.35;2.55;;;18.40;99.90;;;;;;5092101;28;20310;-80
2021/08/25 01:34:53;;;;;;;2.95;2.55;;;18.30;99.90;;;;;;5092318;28;20210;-80
2021/08/25 01:37:20;;;;;;;3.08;2.78;;;18.30;99.90;;;;;;5092133;28;20653;-79
2021/08/25 01:39:48;;;;;;;3.35;2.65;;;18.40;99.90;;;;;;5091884;28;20205;-79
2021/08/25 01:42:15;;;;;;;2.50;2.30;;;18.40;99.90;;;;;;5091889;28;20282;-78
2021/08/25 01:44:42;;;;;;;3.67;2.70;;;18.40;99.90;;;;;;5091587;28;20218;-78
2021/08/25 01:47:10;;;;;;;4.30;3.42;;;18.40;99.90;;;;;;5091446;28;20255;-79
2021/08/25 01:49:38;;;;;;;4.80;2.70;;;18.40;99.90;;;;;;5091664;28;20738;-79
2021/08/25 01:52:06;;;;;;;4.72;3.33;;;18.30;99.90;;;;;;5092380;28;20233;-78
2021/08/25 01:54:33;;;;;;;4.13;2.85;;;18.20;99.90;;;;;;5092098;28;20205;-78
2021/08/25 01:57:00;;;;;;;3.70;2.80;;;18.20;99.90;;;;;;5091136;28;20696;-78
2021/08/25 01:59:27;;;;;;;2.67;2.33;;;18.10;99.90;;;;;;5091480;28;20209;-78
2021/08/25 02:01:54;;;;;;;3.17;2.45;;;18.20;99.90;;;;;;5091642;28;20201;-79
2021/08/25 02:04:22;;;;;;;3.38;3.08;;;18.10;99.90;;;;;;5091441;28;20738;-79
2021/08/25 02:06:50;;;;;;;3.13;2.83;;;18.20;99.90;;;;;;5091212;28;20206;-78
2021/08/25 02:09:17;;;;;;;5.80;3.03;;;18.30;99.90;;;;;;5091564;28;20202;-78
2021/08/25 02:11:44;;;;;;;2.67;2.30;;;18.40;99.90;;;;;;5088916;28;20225;-79
2021/08/25 02:14:11;;;;;;;4.45;3.08;;;18.30;99.90;;;;;;5091145;28;20564;-78
2021/08/25 02:16:38;;;;;;;5.45;2.28;;;18.30;99.90;;;;;;5091224;28;20669;-78
2021/08/25 02:19:05;;;;;;;2.92;2.42;;;18.20;99.90;;;;;;5091820;28;20262;-78
2021/08/25 02:21:34;;;;;;;2.65;2.45;;;18.30;99.90;;;;;;5091767;28;20644;-80
2021/08/25 02:24:01;;;;;;;3.33;2.67;;;18.20;99.90;;;;;;5090572;28;20209;-78
2021/08/25 02:26:28;;;;;;;3.53;3.03;;;18.10;99.90;;;;;;5091275;28;20205;-78
2021/08/25 02:28:55;;;;;;;3.63;2.47;;;18.10;99.90;;;;;;5090755;28;20213;-78
2021/08/25 02:31:23;;;;;;;3.38;3.08;;;18.10;99.90;;;;;;5091434;28;20205;-78
2021/08/25 02:33:51;;;;;;;3.13;2.60;;;18.10;99.90;;;;;;5091048;28;20251;-81
2021/08/25 02:36:19;;;;;;;3.15;2.90;;;18.00;99.90;;;;;;5090939;28;20256;-78
2021/08/25 02:38:49;;;;;;;2.92;2.63;;;18.00;99.90;;;;;;5090664;28;20205;-78
2021/08/25 02:41:18;;;;;;;3.97;2.92;;;18.10;99.90;;;;;;5090633;28;20201;-78
2021/08/25 02:43:45;;;;;;;5.30;3.22;;;18.00;99.90;;;;;;5090700;28;20217;-79
2021/08/25 02:46:12;;;;;;;2.85;2.58;;;18.00;99.90;;;;;;5090598;28;20691;-78
2021/08/25 02:48:40;;;;;;;2.92;2.65;;;18.00;99.90;;;;;;5090672;28;20205;-78
2021/08/25 02:51:07;;;;;;;5.55;2.85;;;18.00;99.90;;;;;;5091147;28;20266;-78
2021/08/25 02:53:34;;;;;;;2.42;2.22;;;18.00;99.90;;;;;;5091069;28;20229;-79
2021/08/25 02:56:02;;;;;;;3.90;2.60;;;17.90;99.90;;;;;;5090356;28;20278;-79
2021/08/25 02:58:29;;;;;;;4.72;2.95;;;18.00;99.90;;;;;;5089775;28;20684;-78
2021/08/25 03:00:56;;;;;;;2.60;2.40;;;18.00;99.90;;;;;;5090592;28;20240;-78
2021/08/25 03:03:23;;;;;;;3.47;2.33;;;18.00;99.90;;;;;;5090653;28;20202;-80
2021/08/25 03:05:50;;;;;;;3.70;2.33;;;17.90;99.90;;;;;;5090287;28;20263;-79
2021/08/25 03:08:17;;;;;;;4.40;2.92;;;17.80;99.90;;;;;;5090045;28;20267;-79
2021/08/25 03:10:44;;;;;;;3.13;2.83;;;17.90;99.90;;;;;;5090550;28;20205;-80
2021/08/25 03:13:12;;;;;;;2.67;2.45;;;17.80;99.90;;;;;;5090210;28;20278;-79
2021/08/25 03:15:39;;;;;;;3.72;2.80;;;17.50;99.90;;;;;;5090198;28;20669;-78
2021/08/25 03:18:07;;;;;;;3.90;2.75;;;17.50;99.90;;;;;;5091093;28;20270;-78
2021/08/25 03:20:34;;;;;;;4.60;2.72;;;17.50;99.90;;;;;;5090582;28;20209;-81
2021/08/25 03:23:01;;;;;;;3.05;2.58;;;17.50;99.90;;;;;;5089908;28;20737;-78
2021/08/25 03:25:28;;;;;;;3.28;2.97;;;17.50;99.90;;;;;;5090121;28;20209;-79
2021/08/25 03:27:55;;;;;;;2.85;2.55;;;17.50;99.90;;;;;;5090209;28;20681;-78
2021/08/25 03:30:23;;;;;;;2.53;2.30;;;17.60;99.90;;;;;;5090139;28;20632;-79
2021/08/25 03:32:50;;;;;;;2.63;2.42;;;17.50;99.90;;;;;;5090082;28;20228;-79
2021/08/25 03:35:17;;;;;;;3.10;2.60;;;17.40;99.90;;;;;;5090462;28;20260;-78
2021/08/25 03:37:44;;;;;;;3.65;2.42;;;17.50;99.90;;;;;;5089975;28;20305;-79
2021/08/25 03:40:12;;;;;;;4.07;3.17;;;17.50;99.90;;;;;;5090535;28;20205;-79
2021/08/25 03:42:39;;;;;;;2.53;2.30;;;17.50;99.90;;;;;;5089900;28;20205;-78
2021/08/25 03:45:07;;;;;;;2.70;2.50;;;17.50;99.90;;;;;;5090407;28;20244;-80
2021/08/25 03:47:35;;;;;;;3.90;2.40;;;17.50;99.90;;;;;;5090756;28;20262;-79
2021/08/25 03:50:02;;;;;;;1.85;1.75;;;17.50;99.90;;;;;;5090228;28;20209;-78
2021/08/25 03:52:29;;;;;;;2.10;1.90;;;17.50;99.90;;;;;;5090065;28;20229;-78
2021/08/25 03:54:57;;;;;;;2.60;2.40;;;17.40;99.90;;;;;;5090070;28;20220;-78
2021/08/25 03:57:24;;;;;;;4.93;3.15;;;17.40;99.90;;;;;;5090375;28;20259;-79
2021/08/25 03:59:51;;;;;;;3.15;2.45;;;17.30;99.90;;;;;;5089882;28;20266;-78
2021/08/25 04:02:18;;;;;;;2.47;2.28;;;17.20;99.90;;;;;;5089977;28;20251;-78
2021/08/25 04:04:47;;;;;;;3.38;2.10;;;17.10;99.90;;;;;;5089836;28;20282;-78
2021/08/25 04:07:14;;;;;;;3.15;2.88;;;17.20;99.90;;;;;;5090231;28;20267;-79
2021/08/25 04:09:41;;;;;;;3.13;2.47;;;17.20;99.90;;;;;;5090300;28;20620;-79
2021/08/25 04:12:08;;;;;;;3.45;2.80;;;17.30;99.90;;;;;;5093847;28;20292;-77
2021/08/25 04:14:36;;;;;;;2.67;1.98;;;17.20;99.90;;;;;;5094105;28;20251;-78
2021/08/25 04:17:03;;;;;;;3.13;2.75;;;17.20;99.90;;;;;;5093772;28;20262;-78
2021/08/25 04:19:30;;;;;;;2.85;2.60;;;17.30;99.90;;;;;;5093731;28;20209;-78
2021/08/25 04:21:58;;;;;;;2.95;2.70;;;17.20;99.90;;;;;;5092905;28;20216;-79
2021/08/25 04:24:25;;;;;;;3.22;2.55;;;17.20;99.90;;;;;;5093837;28;20258;-78
2021/08/25 04:26:52;;;;;;;2.30;2.10;;;17.20;99.90;;;;;;5093177;28;20202;-78
2021/08/25 04:29:19;;;;;;;4.25;2.58;;;17.20;99.90;;;;;;5093748;28;20247;-79
2021/08/25 04:31:46;;;;;;;3.75;2.85;;;17.20;99.90;;;;;;5093220;28;20209;-79
2021/08/25 04:34:13;;;;;;;3.13;2.83;;;17.20;99.90;;;;;;5093268;28;20225;-79
2021/08/25 04:36:40;;;;;;;3.17;2.33;;;17.30;99.90;;;;;;5093072;28;20278;-78
2021/08/25 04:39:09;;;;;;;2.97;2.67;;;17.30;99.90;;;;;;5093133;28;20197;-79
2021/08/25 04:41:36;;;;;;;4.18;2.72;;;17.10;99.90;;;;;;5093616;28;20259;-78
2021/08/25 04:44:03;;;;;;;3.17;1.85;;;17.10;99.90;;;;;;5092855;28;20213;-79
2021/08/25 04:46:30;;;;;;;3.05;2.50;;;17.10;99.90;;;;;;5093505;28;20209;-79
2021/08/25 04:48:57;;;;;;;2.35;2.15;;;17.10;99.90;;;;;;5092651;28;20206;-78
2021/08/25 04:51:24;;;;;;;3.15;2.85;;;16.90;99.90;;;;;;5093068;28;20209;-78
2021/08/25 04:53:51;;;;;;;2.30;2.10;;;16.70;99.90;;;;;;5092539;28;20237;-79
2021/08/25 04:56:19;;;;;;;2.83;2.42;;;16.70;99.90;;;;;;5092583;28;20247;-78
2021/08/25 04:58:46;;;;;;;3.88;2.83;;;16.70;99.90;;;;;;5092406;28;20738;-78
2021/08/25 05:01:13;;;;;;;6.40;3.30;;;16.70;99.90;;;;;;5092155;28;20612;-79
2021/08/25 05:03:40;;;;;;;4.72;2.25;;;16.60;99.90;;;;;;5092546;28;20212;-79
2021/08/25 05:06:08;;;;;;;3.20;2.90;;;16.70;99.90;;;;;;5092604;28;20278;-79
2021/08/25 05:08:35;;;;;;;2.65;2.45;;;16.80;99.90;;;;;;5093047;28;20233;-79
2021/08/25 05:11:03;;;;;;;2.95;2.75;;;16.80;99.90;;;;;;5092368;28;20288;-78
2021/08/25 05:13:31;;;;;;;3.97;2.42;;;16.80;99.90;;;;;;5092921;28;20237;-79
2021/08/25 05:15:59;;;;;;;2.85;2.50;;;16.80;99.90;;;;;;5092453;28;20213;-80
2021/08/25 05:18:26;;;;;;;3.83;2.58;;;16.70;99.90;;;;;;5092166;28;20205;-78
2021/08/25 05:20:54;;;;;;;3.55;2.70;;;16.60;99.90;;;;;;5091493;28;20638;-78
2021/08/25 05:23:21;;;;;;;2.65;2.42;;;16.70;99.90;;;;;;5092115;28;20205;-78
2021/08/25 05:25:48;;;;;;;4.38;3.20;;;16.70;99.90;;;;;;5091834;28;20206;-78
2021/08/25 05:28:15;;;;;;;3.03;2.83;;;16.70;99.90;;;;;;5092686;28;20582;-77
2021/08/25 05:30:43;;;;;;;4.90;3.05;;;16.80;99.90;;;;;;5091774;28;20278;-78
2021/08/25 05:33:10;;;;;;;3.65;3.17;;;16.80;99.90;;;;;;5091888;28;20782;-78
2021/08/25 05:35:37;;;;;;;5.97;3.00;;;16.70;99.90;;;;;;5092193;28;20296;-77
2021/08/25 05:38:04;;;;;;;3.80;2.83;;;16.60;99.90;;;;;;5092685;28;20284;-78
2021/08/25 05:40:31;;;;;;;3.58;2.58;;;16.70;99.90;;;;;;5091900;28;20205;-78
2021/08/25 05:42:58;;;;;;;5.22;2.90;;;16.80;99.90;;;;;;5091729;28;20209;-79
2021/08/25 05:45:25;;;;;;;4.22;3.80;;;16.90;99.90;;;;;;5092185;28;20209;-78
2021/08/25 05:47:56;;;;;;;6.40;2.85;;;16.90;99.90;;;;;;5091342;28;20251;-79
2021/08/25 05:50:24;;;;;;;3.47;3.10;;;16.90;99.90;;;;;;5092031;28;20212;-77
2021/08/25 05:52:51;;;;;;;4.57;3.10;;;17.00;99.90;;;;;;5091355;28;20286;-78
2021/08/25 05:55:18;;;;;;;7.25;3.65;;;17.00;99.90;;;;;;5092147;28;20262;-78
2021/08/25 05:57:46;;;;;;;3.30;2.70;;;17.10;99.90;;;;;;5091174;28;20243;-77
2021/08/25 06:00:14;;;;;;;4.07;2.85;;;17.20;99.90;;;;;;5091592;28;20288;-78
2021/08/25 06:02:41;;;;;;;4.32;2.78;;;17.20;99.90;;;;;;5091146;28;20206;-78
2021/08/25 06:05:11;;;;;;;5.82;2.67;;;17.30;99.90;;;;;;5091868;28;20202;-77
2021/08/25 06:07:38;;;;;;;9.45;4.25;;;17.30;99.90;;;;;;5091457;28;20263;-78
2021/08/25 06:10:07;;;;;;;9.75;3.33;;;17.30;99.90;;;;;;5092243;28;20251;-78
2021/08/25 06:12:35;;;;;;;14.40;3.15;;;17.30;99.90;;;;;;5092124;28;20266;-78
2021/08/25 06:15:02;;;;;;;3.40;3.00;;;17.30;99.90;;;;;;5091107;28;20256;-78
2021/08/25 06:17:29;;;;;;;8.55;3.63;;;17.50;99.90;;;;;;5091270;28;20590;-78
2021/08/25 06:19:56;;;;;;;4.40;3.10;;;17.60;99.90;;;;;;5090626;28;20255;-78
2021/08/25 06:22:24;;;;;;;4.28;2.75;;;17.70;99.90;;;;;;5091131;28;20205;-78
2021/08/25 06:24:51;;;;;;;6.97;3.47;;;17.70;99.90;;;;;;5090717;28;20766;-78
2021/08/25 06:27:18;;;;;;;6.93;3.20;;;17.80;99.90;;;;;;5091286;28;20259;-80
2021/08/25 06:29:45;;;;;;;4.93;3.25;;;17.90;99.90;;;;;;5090803;28;20209;-80
2021/08/25 06:32:12;;;;;;;5.57;3.17;;;17.90;99.90;;;;;;5090754;28;20206;-80
2021/08/25 06:34:39;;;;;;;5.28;3.53;;;17.90;99.90;;;;;;5090736;28;20233;-78
2021/08/25 06:37:06;;;;;;;8.20;3.22;;;18.00;99.90;;;;;;5091392;28;20239;-81
2021/08/25 06:39:35;;;;;;;6.47;3.70;;;18.10;99.90;;;;;;5091273;28;20205;-78
2021/08/25 06:42:02;;;;;;;6.10;3.30;;;18.20;99.90;;;;;;5091050;28;20217;-79
2021/08/25 06:44:29;;;;;;;4.35;3.00;;;18.30;99.90;;;;;;5090684;28;20270;-78
2021/08/25 06:46:56;;;;;;;3.28;2.97;;;18.40;99.90;;;;;;5090316;28;20611;-79
2021/08/25 06:49:23;;;;;;;4.35;2.45;;;18.30;99.90;;;;;;5090628;28;20205;-79
2021/08/25 06:51:50;;;;;;;3.72;2.85;;;18.40;99.90;;;;;;5090619;28;20251;-78
2021/08/25 06:54:17;;;;;;;2.88;2.38;;;18.50;99.90;;;;;;5090517;28;20263;-79
2021/08/25 06:56:46;;;;;;;5.82;3.88;;;18.40;99.90;;;;;;5090406;28;20235;-78
2021/08/25 06:59:13;;;;;;;4.43;3.10;;;18.40;99.90;;;;;;5090603;28;20247;-79
2021/08/25 07:01:39;;;;;;;5.85;2.92;;;18.50;99.90;;;;;;5089958;28;20205;-79
2021/08/25 07:04:06;;;;;;;3.60;3.20;;;18.60;99.90;;;;;;5091440;28;20255;-79
2021/08/25 07:06:33;;;;;;;3.72;2.75;;;18.80;99.90;;;;;;5090953;28;20262;-79
2021/08/25 07:09:00;;;;;;;2.53;2.13;;;19.10;99.90;;;;;;5090352;28;20213;-79
2021/08/25 07:11:27;;;;;;;6.00;3.25;;;19.20;99.90;;;;;;5090476;28;20266;-78
2021/08/25 07:13:56;;;;;;;4.05;2.80;;;19.20;99.90;;;;;;5089888;28;20229;-80
2021/08/25 07:16:23;;;;;;;5.47;3.15;;;19.30;99.90;;;;;;5090104;28;20209;-78
2021/08/25 07:18:50;;;;;;;3.88;2.45;;;19.40;99.90;;;;;;5090034;28;20258;-80
2021/08/25 07:21:17;;;;;;;4.90;3.28;;;19.30;99.90;;;;;;5090512;28;20209;-80
2021/08/25 07:23:48;;;;;;;3.75;2.88;;;19.20;99.90;;;;;;5089970;28;20214;-79
2021/08/25 07:26:15;;;;;;;3.53;2.70;;;19.40;99.90;;;;;;5090602;28;20202;-81
2021/08/25 07:28:44;;;;;;;2.90;2.42;;;19.80;99.90;;;;;;5089510;28;20213;-79
2021/08/25 07:31:12;;;;;;;2.78;2.42;;;20.00;99.90;;;;;;5090721;28;20209;-79
2021/08/25 07:33:40;;;;;;;4.28;2.60;;;20.10;99.90;;;;;;5089987;28;20233;-78
2021/08/25 07:36:07;;;;;;;3.00;2.33;;;20.20;99.90;;;;;;5090832;28;20579;-79
2021/08/25 07:38:34;;;;;;;3.97;2.30;;;20.20;99.90;;;;;;5090562;28;20668;-81
2021/08/25 07:41:02;;;;;;;4.38;2.55;;;20.20;99.90;;;;;;5089934;28;20267;-80
2021/08/25 07:43:29;;;;;;;3.45;2.72;;;20.20;99.90;;;;;;5089959;28;20232;-80
2021/08/25 07:45:56;;;;;;;2.55;2.30;;;20.30;99.90;;;;;;5093000;28;20201;-80
2021/08/25 07:48:24;;;;;;;3.20;2.33;;;20.50;99.90;;;;;;5094450;28;20251;-79
2021/08/25 07:50:52;;;;;;;3.25;2.38;;;20.70;99.90;;;;;;5093873;28;20206;-80
2021/08/25 07:53:19;;;;;;;9.73;3.47;;;20.80;99.90;;;;;;5094369;28;20327;-80
2021/08/25 07:55:46;;;;;;;6.45;2.90;;;21.00;99.90;;;;;;5093600;28;20205;-81
2021/08/25 07:58:14;;;;;;;3.63;2.65;;;21.00;99.90;;;;;;5093954;28;20206;-80
2021/08/25 08:00:41;;;;;;;5.32;3.08;;;20.90;99.90;;;;;;5093565;28;20235;-79
2021/08/25 08:03:08;;;;;;;3.00;2.70;;;20.90;99.90;;;;;;5093959;28;20247;-79
2021/08/25 08:05:37;;;;;;;2.88;2.47;;;21.00;99.90;;;;;;5094253;28;20568;-79
2021/08/25 08:08:04;;;;;;;8.60;3.50;;;21.10;99.90;;;;;;5093982;28;20201;-79
2021/08/25 08:10:31;;;;;;;3.03;2.78;;;21.20;99.90;;;;;;5093850;28;20697;-81
2021/08/25 08:12:58;;;;;;;3.78;2.45;;;21.40;99.90;;;;;;5092978;28;20262;-79
2021/08/25 08:15:29;;;;;;;3.97;2.40;;;22.00;99.90;;;;;;5093677;28;20782;-80
2021/08/25 08:17:56;;;;;;;3.53;2.72;;;22.00;99.90;;;;;;5093385;28;20212;-82
2021/08/25 08:20:23;;;;;;;6.57;2.22;;;22.10;99.90;;;;;;5093391;28;20202;-79
2021/08/25 08:22:52;;;;;;;3.00;2.63;;;22.20;99.90;;;;;;5093300;28;20201;-80
2021/08/25 08:25:19;;;;;;;6.65;2.50;;;22.40;99.90;;;;;;5093480;28;20266;-79
2021/08/25 08:27:46;;;;;;;6.05;3.65;;;22.50;99.90;;;;;;5092941;28;20672;-79
2021/08/25 08:30:13;;;;;;;3.70;2.75;;;22.80;99.90;;;;;;5093452;28;20271;-80
2021/08/25 08:32:41;;;;;;;4.22;2.60;;;23.00;99.90;;;;;;5093129;28;20210;-79
2021/08/25 08:35:09;;;;;;;4.88;2.40;;;23.10;99.90;;;;;;5093254;28;20320;-80
2021/08/25 08:37:36;;;;;;;3.45;2.38;;;23.10;99.90;;;;;;5093301;28;20202;-79
2021/08/25 08:40:06;;;;;;;4.93;2.30;;;23.20;99.90;;;;;;5093485;28;20274;-81
2021/08/25 08:42:34;;;;;;;4.47;2.60;;;23.30;99.90;;;;;;5093372;28;20210;-80
2021/08/25 08:45:03;;;;;;;2.95;2.38;;;23.50;99.90;;;;;;5092697;28;20213;-82
2021/08/25 08:47:30;;;;;;;3.13;2.45;;;23.50;99.90;;;;;;5093252;28;20209;-81
2021/08/25 08:50:00;;;;;;;2.67;2.30;;;23.70;99.90;;;;;;5092733;28;20262;-82
2021/08/25 08:52:27;;;;;;;3.92;2.65;;;23.90;99.90;;;;;;5093247;28;20202;-80
2021/08/25 08:54:57;;;;;;;4.95;2.13;;;24.10;99.90;;;;;;5092598;28;20229;-81
2021/08/25 08:57:26;;;;;;;4.38;2.35;;;24.10;99.90;;;;;;5091916;28;20688;-80
2021/08/25 08:59:53;;;;;;;3.22;2.20;;;24.20;99.90;;;;;;5078512;28;20218;-79
2021/08/25 09:02:40;;;;;;;3.90;2.78;;;24.30;99.90;;;;;;5092890;28;20261;-79
2021/08/25 09:05:18;;;;;;;3.58;2.17;;;24.80;99.90;;;;;;5080314;28;20233;-80
2021/08/25 09:07:49;;;;;;;4.75;2.35;;;24.70;99.90;;;;;;5092215;28;20209;-79
2021/08/25 09:10:22;;;;;;;3.92;2.15;;;24.80;99.90;;;;;;5092523;28;20259;-80
2021/08/25 09:12:52;;;;;;;2.42;1.90;;;25.00;99.90;;;;;;5091904;28;20611;-79
2021/08/25 09:15:21;;;;;;;3.15;2.30;;;25.30;99.90;;;;;;5093193;28;20304;-81
2021/08/25 09:17:54;;;;;;;5.00;2.13;;;25.60;99.90;;;;;;5092128;28;20263;-81
2021/08/25 09:20:21;;;;;;;6.78;2.38;;;25.70;99.90;;;;;;5092234;28;20667;-79
2021/08/25 09:22:48;;;;;;;5.97;2.38;;;25.90;99.90;;;;;;5092047;28;20227;-82
2021/08/25 09:25:31;;;;;;;4.00;2.80;;;26.50;99.90;;;;;;5091768;28;20737;-81
2021/08/25 09:27:59;;;;;;;4.05;2.88;;;26.20;99.90;;;;;;5091860;28;20201;-81
2021/08/25 09:30:27;;;;;;;3.67;2.35;;;26.20;99.90;;;;;;5092377;28;20263;-80
2021/08/25 09:32:53;;;;;;;3.88;2.50;;;26.70;99.90;;;;;;5092110;28;20214;-81
2021/08/25 09:35:21;;;;;;;2.72;2.28;;;28.20;99.90;;;;;;5092200;28;20285;-78
2021/08/25 09:37:52;;;;;;;2.97;2.22;;;30.40;99.90;;;;;;5091690;28;20201;-79
2021/08/25 09:40:19;;;;;;;2.35;2.15;;;32.10;99.90;;;;;;5092095;28;20214;-81
2021/08/25 09:42:48;;;;;;;6.03;2.10;;;34.80;99.90;;;;;;5091475;28;20249;-79
2021/08/25 09:45:17;;;;;;;2.33;2.13;;;37.00;99.90;;;;;;5091767;28;20209;-81
2021/08/25 09:47:49;;;;;;;3.85;2.22;;;33.20;99.90;;;;;;5091394;28;20669;-79
2021/08/25 09:50:17;;;;;;;4.00;2.17;;;33.80;99.90;;;;;;5091768;28;20204;-80
2021/08/25 09:52:45;;;;;;;2.25;2.05;;;33.20;99.90;;;;;;5091460;28;20211;-80
2021/08/25 09:55:13;;;;;;;5.18;2.22;;;36.90;99.90;;;;;;5091811;28;20282;-82
2021/08/25 09:57:42;;;;;;;2.95;1.90;;;38.70;99.90;;;;;;5091151;28;20664;-79
2021/08/25 10:00:11;;;;;;;2.75;1.88;;;39.10;99.90;;;;;;5091876;28;20212;-81
2021/08/25 10:02:41;;;;;;;2.17;1.98;;;37.30;99.90;;;;;;5091558;28;20262;-80
2021/08/25 10:05:09;;;;;;;1.63;1.52;;;36.60;99.90;;;;;;5091719;28;20577;-80
2021/08/25 10:07:36;;;;;;;4.10;2.30;;;35.50;99.90;;;;;;5091903;28;20200;-84
2021/08/25 10:10:04;;;;;;;2.47;2.03;;;35.60;99.90;;;;;;5091097;28;20742;-80
2021/08/25 10:12:32;;;;;;;2.22;2.05;;;33.80;99.90;;;;;;5091752;28;20201;-81
2021/08/25 10:14:59;;;;;;;2.17;2.00;;;33.90;99.90;;;;;;5090870;28;20225;-82
2021/08/25 10:17:40;;;;;;;4.10;2.60;;;35.00;99.90;;;;;;5091469;28;20201;-82
2021/08/25 10:20:34;;;;;;;5.28;1.90;;;36.30;99.80;;;;;;5091219;28;20196;-76
2021/08/25 10:23:02;;;;;;;2.72;2.00;;;38.20;99.20;;;;;;5090903;28;20668;-78
2021/08/25 10:25:30;;;;;;;2.90;1.70;;;37.90;98.20;;;;;;5091142;28;20209;-80
2021/08/25 10:28:03;;;;;;;2.80;1.83;;;38.10;98.40;;;;;;5091020;28;20712;-77
2021/08/25 10:30:30;;;;;;;1.80;1.67;;;37.70;97.40;;;;;;5091173;28;20208;-78
2021/08/25 10:33:12;;;;;;;1.83;1.73;;;37.90;98.30;;;;;;5091084;28;20209;-76
2021/08/25 10:35:42;;;;;;;2.45;2.10;;;32.20;99.60;;;;;;5090617;28;20228;-77
2021/08/25 10:38:27;;;;;;;2.22;1.95;;;30.40;99.90;;;;;;5090810;28;20253;-80
2021/08/25 10:41:00;;;;;;;2.25;1.67;;;29.00;99.90;;;;;;5090587;28;20269;-82
2021/08/25 10:43:42;;;;;;;2.13;1.92;;;28.70;99.90;;;;;;5090784;28;20680;-79
2021/08/25 10:46:12;;;;;;;1.63;1.52;;;28.50;99.90;;;;;;5090829;28;20212;-80
2021/08/25 10:48:49;;;;;;;3.88;2.00;;;28.50;99.90;;;;;;5090467;28;20208;-80
2021/08/25 10:51:46;;;;;;;2.70;2.00;;;27.90;99.90;;;;;;5090751;28;20202;-79
2021/08/25 10:54:16;;;;;;;3.08;2.17;;;27.80;99.90;;;;;;5090355;28;20236;-79
2021/08/25 10:56:46;;;;;;;2.00;1.90;;;28.40;99.90;;;;;;5090436;28;20249;-81
2021/08/25 10:59:19;;;;;;;2.47;2.28;;;27.90;99.90;;;;;;5090423;28;20266;-81
2021/08/25 11:01:47;;;;;;;3.00;1.65;;;28.00;99.90;;;;;;5090242;28;20213;-80
2021/08/25 11:04:18;;;;;;;3.13;2.08;;;27.80;99.90;;;;;;5090609;28;20628;-80
2021/08/25 11:06:49;;;;;;;3.15;2.30;;;28.30;99.90;;;;;;5090580;28;20205;-84
2021/08/25 11:09:34;;;;;;;3.17;1.95;;;27.70;99.90;;;;;;5090635;28;20205;-81
2021/08/25 11:12:05;;;;;;;3.40;2.13;;;28.10;99.90;;;;;;5090937;28;20206;-80
2021/08/25 11:14:34;;;;;;;1.75;1.65;;;28.10;99.90;;;;;;5090466;28;20229;-80
2021/08/25 11:17:07;;;;;;;3.00;2.10;;;28.10;99.90;;;;;;5090432;28;20337;-81
2021/08/25 11:19:39;;;;;;;1.88;1.77;;;28.00;99.90;;;;;;5089843;28;20568;-80
2021/08/25 11:22:07;;;;;;;2.85;1.52;;;28.30;99.90;;;;;;5090231;28;20645;-80
2021/08/25 11:24:37;;;;;;;1.90;1.80;;;28.30;99.90;;;;;;5090966;28;20217;-81
2021/08/25 11:27:05;;;;;;;3.05;1.70;;;28.40;99.90;;;;;;5090351;28;20680;-81
2021/08/25 11:29:32;;;;;;;2.42;2.22;;;28.20;99.90;;;;;;5090827;28;20209;-82
2021/08/25 11:32:04;;;;;;;1.70;1.52;;;28.20;99.90;;;;;;5090067;28;20209;-81
2021/08/25 11:34:31;;;;;;;1.85;1.67;;;27.80;99.90;;;;;;5090513;28;20304;-80
2021/08/25 11:37:03;;;;;;;1.50;1.40;;;27.70;99.90;;;;;;5090114;28;20209;-80
2021/08/25 11:39:32;;;;;;;2.75;1.83;;;27.70;99.90;;;;;;5090495;28;20296;-81
2021/08/25 11:42:00;;;;;;;3.05;1.35;;;27.90;99.90;;;;;;5090329;28;20266;-80
2021/08/25 11:44:44;;;;;;;3.65;1.70;;;27.80;99.90;;;;;;5089973;28;20271;-82
2021/08/25 11:47:17;;;;;;;3.40;1.42;;;28.10;99.90;;;;;;5090402;28;20224;-80
2021/08/25 11:49:46;;;;;;;1.65;1.50;;;28.20;99.90;;;;;;5089826;28;20209;-81
2021/08/25 11:52:15;;;;;;;2.35;1.92;;;28.20;99.90;;;;;;5090455;28;20201;-80
2021/08/25 11:54:43;;;;;;;2.53;1.67;;;28.20;99.90;;;;;;5089612;28;20225;-81
2021/08/25 11:57:12;;;;;;;1.48;1.38;;;28.40;99.90;;;;;;5090078;28;20212;-80
2021/08/25 11:59:57;;;;;;;1.70;1.40;;;28.40;99.90;;;;;;5089475;28;20293;-78
2021/08/25 12:02:25;;;;;;;2.25;1.60;;;28.40;99.90;;;;;;5090398;28;20223;-80
2021/08/25 12:04:52;;;;;;;3.22;1.75;;;28.50;99.90;;;;;;5089416;28;20263;-78
2021/08/25 12:07:20;;;;;;;2.50;1.83;;;29.00;99.90;;;;;;5090371;28;20205;-79
2021/08/25 12:09:47;;;;;;;2.90;1.80;;;28.50;99.90;;;;;;5089637;28;20202;-82
2021/08/25 12:12:14;;;;;;;3.90;1.60;;;28.70;99.90;;;;;;5090021;28;20627;-79
2021/08/25 12:14:55;;;;;;;2.45;1.60;;;28.90;99.90;;;;;;5089560;28;20210;-78
2021/08/25 12:17:23;;;;;;;4.18;1.75;;;28.80;99.90;;;;;;5090304;28;20259;-80
2021/08/25 12:19:57;;;;;;;1.77;1.67;;;28.50;99.90;;;;;;5089103;28;20630;-81
2021/08/25 12:22:29;;;;;;;5.72;1.90;;;28.50;99.90;;;;;;5089822;28;20201;-79
2021/08/25 12:24:57;;;;;;;1.60;1.50;;;28.60;99.90;;;;;;5089770;28;20632;-79
2021/08/25 12:27:24;;;;;;;2.75;1.90;;;28.70;99.90;;;;;;5089864;28;20205;-80
2021/08/25 12:29:51;;;;;;;3.33;1.73;;;28.50;99.90;;;;;;5089726;28;20217;-80
2021/08/25 12:32:18;;;;;;;2.03;1.60;;;28.80;99.90;;;;;;5093163;28;20206;-79
2021/08/25 12:34:58;;;;;;;1.52;1.42;;;29.00;99.90;;;;;;5092641;28;20205;-80
2021/08/25 12:37:54;;;;;;;1.60;1.50;;;28.90;99.90;;;;;;5093282;28;20633;-79
2021/08/25 12:40:23;;;;;;;1.73;1.63;;;29.00;99.90;;;;;;5093541;28;20202;-80
2021/08/25 12:42:52;;;;;;;1.95;1.80;;;29.00;99.90;;;;;;5093009;28;20202;-79
2021/08/25 12:45:20;;;;;;;4.05;1.73;;;28.80;99.90;;;;;;5093248;28;20255;-80
2021/08/25 12:47:49;;;;;;;1.88;1.45;;;28.60;99.90;;;;;;5092631;28;20284;-79
2021/08/25 12:50:17;;;;;;;1.88;1.77;;;28.60;99.90;;;;;;5093083;28;20209;-80
2021/08/25 12:52:43;;;;;;;2.42;2.13;;;28.90;99.90;;;;;;5092761;28;20251;-80
2021/08/25 12:55:13;;;;;;;2.13;1.92;;;28.80;99.90;;;;;;5093182;28;20229;-81